Pamlico — WX6900 — position and weather

sailwx.info

Track history (hours):
 
Tides and Currents Weather Stations Pressure Air Temp Water Temp Dewpoint Dewpoint Depression Visibility Wind Speed Wind Dir Waves Ship Positions

Pamlico

Owner: PCS Phosphate, AURORA, NC. More information available from US FCC via Universal Licensing System and Coast Guard Vessel Documentation Center.

Last reported at 2014-Nov-22 09:11 UTC. Time now 2014-Nov-23 14:50 UTC.
Position N 35°01' W 076°39'.

Length 30 m; draft 3 m.

MMSI: 367361220.

Date/timePositionNaut miles runAvg speedWind from/ knotsBaromVisibWave heightAir tempDewpointWater temp
2014-Nov-22 09:11N 35°01' W 076°39'4 6.0
2014-Nov-22 08:33N 34°57' W 076°40'5 4.9
2014-Nov-22 07:33N 34°52' W 076°42'5 4.7
2014-Nov-22 06:33N 34°48' W 076°41'4 4.3
2014-Nov-22 05:33N 34°43' W 076°42'0 0.1
2014-Nov-22 04:33N 34°43' W 076°42'5 4.6
2014-Nov-22 03:33N 34°48' W 076°41'6 5.5
2014-Nov-22 02:33N 34°53' W 076°41'5 4.7
2014-Nov-22 01:33N 34°58' W 076°41'3 0.1
2014-Nov-19 23:24N 35°01' W 076°40'5 6.3
2014-Nov-19 22:33N 34°55' W 076°39'7 6.9
2014-Nov-19 21:33N 34°49' W 076°41'5 5.2
2014-Nov-19 20:33N 34°43' W 076°42'3 3.1
2014-Nov-19 19:33N 34°46' W 076°41'6 6.4
2014-Nov-19 18:33N 34°53' W 076°41'5 5.3
2014-Nov-19 17:33N 34°58' W 076°41'3 0.2
2014-Nov-19 05:31N 35°01' W 076°40'5 5.3
2014-Nov-19 04:33N 34°56' W 076°39'5 4.6
2014-Nov-19 03:33N 34°51' W 076°41'5 4.6
2014-Nov-19 02:33N 34°47' W 076°41'4 4.0
2014-Nov-19 01:33N 34°43' W 076°41'1 0.6
2014-Nov-19 00:33N 34°43' W 076°42'0 0.0
2014-Nov-18 23:33N 34°43' W 076°42'0 0.0
2014-Nov-18 22:33N 34°43' W 076°42'0 0.0
2014-Nov-18 21:33N 34°43' W 076°42'0 0.3
2014-Nov-18 20:33N 34°43' W 076°42'3 3.4
2014-Nov-18 19:33N 34°46' W 076°41'8 7.6
2014-Nov-18 18:33N 34°54' W 076°41'7 6.7
2014-Nov-18 17:29N 35°01' W 076°39'11 8.1
2014-Nov-18 16:11N 35°09' W 076°30'10 0.6
2014-Nov-18 00:33N 35°01' W 076°38'6 6.5
2014-Nov-17 23:33N 34°55' W 076°40'8 7.9
2014-Nov-17 22:33N 34°47' W 076°41'4 4.0
2014-Nov-17 21:33N 34°43' W 076°42'4 3.7
2014-Nov-17 20:33N 34°47' W 076°41'5 4.7
2014-Nov-17 19:33N 34°52' W 076°41'5 4.7
2014-Nov-17 18:33N 34°56' W 076°39'0 0.0
2014-Nov-16 17:16N 34°56' W 076°39'4 5.7
2014-Nov-16 16:33N 34°52' W 076°41'6 5.6
2014-Nov-16 15:33N 34°47' W 076°41'3 3.3
2014-Nov-16 14:33N 34°43' W 076°42'1 1.1
2014-Nov-16 13:33N 34°44' W 076°41'7 6.5
2014-Nov-16 12:33N 34°51' W 076°41'6 5.8
2014-Nov-16 11:33N 34°56' W 076°39'6 5.3
2014-Nov-16 10:29N 35°02' W 076°38'7 7.3
2014-Nov-16 09:30N 35°06' W 076°31'9 0.5
2014-Nov-15 16:09N 35°01' W 076°40'4 5.9
2014-Nov-15 15:33N 34°57' W 076°41'5 4.6
2014-Nov-15 14:33N 34°53' W 076°41'4 4.4
2014-Nov-15 13:33N 34°48' W 076°41'5 5.1
2014-Nov-15 12:33N 34°43' W 076°42'0 0.1
2014-Nov-15 11:33N 34°43' W 076°42'0 0.0
2014-Nov-15 10:33N 34°43' W 076°42'0 0.0
2014-Nov-15 09:33N 34°43' W 076°42'0 0.0
2014-Nov-15 08:33N 34°43' W 076°42'0 0.0
2014-Nov-15 07:33N 34°43' W 076°42'0 0.0
2014-Nov-15 06:33N 34°43' W 076°42'1 0.6
2014-Nov-15 05:33N 34°43' W 076°41'2 1.5
2014-Nov-15 04:33N 34°44' W 076°41'8 8.0
2014-Nov-15 03:33N 34°52' W 076°41'7 7.0
2014-Nov-15 02:32N 34°60' W 076°41'9 8.7
2014-Nov-15 01:28N 35°05' W 076°32'11 1.2
2014-Nov-14 16:33N 34°57' W 076°41'6 6.0
2014-Nov-14 15:33N 34°51' W 076°41'7 6.9
2014-Nov-14 14:33N 34°44' W 076°41'1 0.6
2014-Nov-14 12:33N 34°43' W 076°42'0 0.0
2014-Nov-14 11:33N 34°43' W 076°42'0 0.0
2014-Nov-14 10:33N 34°43' W 076°42'0 0.0
2014-Nov-14 09:33N 34°43' W 076°42'0 0.0
2014-Nov-14 08:33N 34°43' W 076°42'1 0.6
2014-Nov-14 07:33N 34°43' W 076°41'4 3.7
2014-Nov-14 06:33N 34°47' W 076°41'6 5.7
2014-Nov-14 05:33N 34°52' W 076°41'5 5.2
2014-Nov-14 04:33N 34°57' W 076°41'  
Track history (hours):
 
Tides and Currents Weather Stations Pressure Air Temp Water Temp Dewpoint Dewpoint Depression Visibility Wind Speed Wind Dir Waves Ship Positions

Pamlico

Owner: PCS Phosphate, AURORA, NC. More information available from US FCC via Universal Licensing System and Coast Guard Vessel Documentation Center.

Last reported at 2014-Nov-22 09:11 UTC. Time now 2014-Nov-23 14:50 UTC.
Position N 35°01' W 076°39'.

Length 30 m; draft 3 m.

MMSI: 367361220.

Date/timePositionNaut miles runAvg speedWind from/ knotsBaromVisibWave heightAir tempDewpointWater temp
2014-Nov-22 09:11N 35°01' W 076°39'4 6.0
2014-Nov-22 08:33N 34°57' W 076°40'5 4.9
2014-Nov-22 07:33N 34°52' W 076°42'5 4.7
2014-Nov-22 06:33N 34°48' W 076°41'4 4.3
2014-Nov-22 05:33N 34°43' W 076°42'0 0.1
2014-Nov-22 04:33N 34°43' W 076°42'5 4.6
2014-Nov-22 03:33N 34°48' W 076°41'6 5.5
2014-Nov-22 02:33N 34°53' W 076°41'5 4.7
2014-Nov-22 01:33N 34°58' W 076°41'3 0.1
2014-Nov-19 23:24N 35°01' W 076°40'5 6.3
2014-Nov-19 22:33N 34°55' W 076°39'7 6.9
2014-Nov-19 21:33N 34°49' W 076°41'5 5.2
2014-Nov-19 20:33N 34°43' W 076°42'3 3.1
2014-Nov-19 19:33N 34°46' W 076°41'6 6.4
2014-Nov-19 18:33N 34°53' W 076°41'5 5.3
2014-Nov-19 17:33N 34°58' W 076°41'3 0.2
2014-Nov-19 05:31N 35°01' W 076°40'5 5.3
2014-Nov-19 04:33N 34°56' W 076°39'5 4.6
2014-Nov-19 03:33N 34°51' W 076°41'5 4.6
2014-Nov-19 02:33N 34°47' W 076°41'4 4.0
2014-Nov-19 01:33N 34°43' W 076°41'1 0.6
2014-Nov-19 00:33N 34°43' W 076°42'0 0.0
2014-Nov-18 23:33N 34°43' W 076°42'0 0.0
2014-Nov-18 22:33N 34°43' W 076°42'0 0.0
2014-Nov-18 21:33N 34°43' W 076°42'0 0.3
2014-Nov-18 20:33N 34°43' W 076°42'3 3.4
2014-Nov-18 19:33N 34°46' W 076°41'8 7.6
2014-Nov-18 18:33N 34°54' W 076°41'7 6.7
2014-Nov-18 17:29N 35°01' W 076°39'11 8.1
2014-Nov-18 16:11N 35°09' W 076°30'10 0.6
2014-Nov-18 00:33N 35°01' W 076°38'6 6.5
2014-Nov-17 23:33N 34°55' W 076°40'8 7.9
2014-Nov-17 22:33N 34°47' W 076°41'4 4.0
2014-Nov-17 21:33N 34°43' W 076°42'4 3.7
2014-Nov-17 20:33N 34°47' W 076°41'5 4.7
2014-Nov-17 19:33N 34°52' W 076°41'5 4.7
2014-Nov-17 18:33N 34°56' W 076°39'0 0.0
2014-Nov-16 17:16N 34°56' W 076°39'4 5.7
2014-Nov-16 16:33N 34°52' W 076°41'6 5.6
2014-Nov-16 15:33N 34°47' W 076°41'3 3.3
2014-Nov-16 14:33N 34°43' W 076°42'1 1.1
2014-Nov-16 13:33N 34°44' W 076°41'7 6.5
2014-Nov-16 12:33N 34°51' W 076°41'6 5.8
2014-Nov-16 11:33N 34°56' W 076°39'6 5.3
2014-Nov-16 10:29N 35°02' W 076°38'7 7.3
2014-Nov-16 09:30N 35°06' W 076°31'9 0.5
2014-Nov-15 16:09N 35°01' W 076°40'4 5.9
2014-Nov-15 15:33N 34°57' W 076°41'5 4.6
2014-Nov-15 14:33N 34°53' W 076°41'4 4.4
2014-Nov-15 13:33N 34°48' W 076°41'5 5.1
2014-Nov-15 12:33N 34°43' W 076°42'0 0.1
2014-Nov-15 11:33N 34°43' W 076°42'0 0.0
2014-Nov-15 10:33N 34°43' W 076°42'0 0.0
2014-Nov-15 09:33N 34°43' W 076°42'0 0.0
2014-Nov-15 08:33N 34°43' W 076°42'0 0.0
2014-Nov-15 07:33N 34°43' W 076°42'0 0.0
2014-Nov-15 06:33N 34°43' W 076°42'1 0.6
2014-Nov-15 05:33N 34°43' W 076°41'2 1.5
2014-Nov-15 04:33N 34°44' W 076°41'8 8.0
2014-Nov-15 03:33N 34°52' W 076°41'7 7.0
2014-Nov-15 02:32N 34°60' W 076°41'9 8.7
2014-Nov-15 01:28N 35°05' W 076°32'11 1.2
2014-Nov-14 16:33N 34°57' W 076°41'6 6.0
2014-Nov-14 15:33N 34°51' W 076°41'7 6.9
2014-Nov-14 14:33N 34°44' W 076°41'1 0.6
2014-Nov-14 12:33N 34°43' W 076°42'0 0.0
2014-Nov-14 11:33N 34°43' W 076°42'0 0.0
2014-Nov-14 10:33N 34°43' W 076°42'0 0.0
2014-Nov-14 09:33N 34°43' W 076°42'0 0.0
2014-Nov-14 08:33N 34°43' W 076°42'1 0.6
2014-Nov-14 07:33N 34°43' W 076°41'4 3.7
2014-Nov-14 06:33N 34°47' W 076°41'6 5.7
2014-Nov-14 05:33N 34°52' W 076°41'5 5.2
2014-Nov-14 04:33N 34°57' W 076°41'  

Dump ship's entire track history